WetterOnline ( http://www.wetteronline.de )

Wetter aktuell Ahaus

Aktuelles Wetter: Ahaus (46m)

6-stündlich | Neueste Meldungen
Ortszeit Temperatur Wetter
Fr, 16.11. 7:00 -2.7° C wolkig
Fr, 16.11. 1:00 -1.2° C Nebel
Do, 15.11. 19:00 2.5° C leicht bewölkt
Do, 15.11. 13:00 10.0° C wolkenlos
Do, 15.11. 7:00 -0.7° C Nebel
Do, 15.11. 1:00 2.8° C wolkig
Mi, 14.11. 19:00 5.0° C wolkig
Mi, 14.11. 13:00 12.1° C leicht bewölkt
Ortszeit Temperatur Wetter
Fr, 16.11. 10:30 2.2° C wolkenlos
Fr, 16.11. 10:20 2.2° C wolkenlos
Fr, 16.11. 10:10 1.4° C wolkenlos
Fr, 16.11. 10:00 0.8° C wolkenlos
Fr, 16.11. 9:50 0.8° C wolkenlos
Fr, 16.11. 9:40 0.6° C fast wolkenlos
Fr, 16.11. 9:30 -0.3° C wolkig
Fr, 16.11. 9:00 -2.0° C leicht bewölkt
Fr, 16.11. 8:30 -2.6° C leicht bewölkt
Fr, 16.11. 8:00 -3.3° C wolkig
Fr, 16.11. 7:30 -3.1° C wolkig
Ortszeit Relative Feuchte Sichtweite
Fr, 16.11. 7:00 96% 6 km
Fr, 16.11. 1:00 99% 100 m
Do, 15.11. 19:00 96% 7 km
Do, 15.11. 13:00 68% 20 km
Do, 15.11. 7:00 100% 100 m
Do, 15.11. 1:00 97% 3.5 km
Mi, 14.11. 19:00 95% 8 km
Mi, 14.11. 13:00 77% 21 km
Ortszeit Relative Feuchte Sichtweite
Fr, 16.11. 10:30 88% 7 km
Fr, 16.11. 10:20 88% -
Fr, 16.11. 10:10 88% -
Fr, 16.11. 10:00 89% 6 km
Fr, 16.11. 9:50 89% -
Fr, 16.11. 9:40 92% -
Fr, 16.11. 9:30 96% 4.1 km
Fr, 16.11. 9:00 94% 5.0 km
Fr, 16.11. 8:30 98% 5.0 km
Fr, 16.11. 8:00 96% 5.0 km
Fr, 16.11. 7:30 96% 6 km
Ortszeit Niederschlagsmenge Niederschlagsart
Fr, 16.11. 7:00 0.0 l/m2 in 12 Std. -
Fr, 16.11. 1:00 0.0 l/m2 in 6 Std. -
Do, 15.11. 19:00 0.0 l/m2 in 12 Std. -
Do, 15.11. 13:00 0.0 l/m2 in 6 Std. -
Do, 15.11. 7:00 0.0 l/m2 in 12 Std. -
Do, 15.11. 1:00 0.0 l/m2 in 6 Std. -
Mi, 14.11. 19:00 0.0 l/m2 in 12 Std. -
Mi, 14.11. 13:00 0.0 l/m2 in 6 Std. -
Ortszeit Niederschlagsmenge Niederschlagsart
Fr, 16.11. 10:30 0.0 l/m2 in 1 Std. -
Fr, 16.11. 10:20 keine Meldung -
Fr, 16.11. 10:10 keine Meldung -
Fr, 16.11. 10:00 0.0 l/m2 in 1 Std. -
Fr, 16.11. 9:50 keine Meldung -
Fr, 16.11. 9:40 keine Meldung -
Fr, 16.11. 9:30 0.0 l/m2 in 1 Std. -
Fr, 16.11. 9:00 0.0 l/m2 in 1 Std. -
Fr, 16.11. 8:30 0.0 l/m2 in 1 Std. -
Fr, 16.11. 8:00 0.0 l/m2 in 1 Std. -
Fr, 16.11. 7:30 0.0 l/m2 in 1 Std. -
Ortszeit Stärke Spitze Richtung
km/h Bft. km/h Grad Sektor
Fr, 16.11. 7:00 4 1 18 30° NO
Fr, 16.11. 1:00 4 1 18 120° SO
Do, 15.11. 19:00 4 1 14 100° O
Do, 15.11. 13:00 7 2 14 140° SO
Do, 15.11. 7:00 6 1 9 100° O
Do, 15.11. 1:00 4 1 11 100° O
Mi, 14.11. 19:00 4 1 22 130° SO
Mi, 14.11. 13:00 11 2 22 210° SW
Ortszeit Stärke Spitze Richtung
km/h Bft. km/h Grad Sektor
Fr, 16.11. 10:30 6 1 7 50° NO
Fr, 16.11. 10:20 6 1 - 50° NO
Fr, 16.11. 10:10 6 1 - 50° NO
Fr, 16.11. 10:00 7 2 22 60° NO
Fr, 16.11. 9:50 7 2 - 60° NO
Fr, 16.11. 9:40 6 1 - 70° O
Fr, 16.11. 9:30 7 2 9 90° O
Fr, 16.11. 9:00 7 2 11 20° N
Fr, 16.11. 8:30 7 2 9 70° O
Fr, 16.11. 8:00 7 2 9 80° O
Fr, 16.11. 7:30 7 2 7 60° NO
Ortszeit Untergrenze Bedeckung Gattung
total tief tief mittel hoch
Fr, 16.11. 7:00 10500 m 8/8 0/8 - - -
Fr, 16.11. 1:00 - 0/8 0/8 - - -
Do, 15.11. 19:00 9000 m 4/8 0/8 - - -
Do, 15.11. 13:00 - 0/8 0/8 - - -
Do, 15.11. 7:00 10500 m 1/8 0/8 - - -
Do, 15.11. 1:00 9000 m 8/8 0/8 - - -
Mi, 14.11. 19:00 9000 m 8/8 0/8 - - -
Mi, 14.11. 13:00 10500 m 8/8 0/8 - - -
Ortszeit Bedeckungsgrad in Achtel und Wolkenuntergrenze
Fr, 16.11. 10:30 keine Wolken
Fr, 16.11. 10:20 keine Wolken
Fr, 16.11. 10:10 keine Wolken
Fr, 16.11. 10:00 keine Wolken
Fr, 16.11. 9:50 keine Wolken
Fr, 16.11. 9:40 1(10500m)
Fr, 16.11. 9:30 7(10500m)
Fr, 16.11. 9:00 5(10500m)
Fr, 16.11. 8:30 5(10500m)
Fr, 16.11. 8:00 8(10500m)
Fr, 16.11. 7:30 8(10500m)
Ortszeit Luftdruck NN (hPa) Tendenz (hPa in 3 Std.)
Fr, 16.11. 7:00 1028 + 0,6
Fr, 16.11. 1:00 1027 + 0,4
Do, 15.11. 19:00 1026 + 0,4
Do, 15.11. 13:00 1026 - 0,7
Do, 15.11. 7:00 1026 0,0
Do, 15.11. 1:00 1027 - 0,3
Mi, 14.11. 19:00 1027 - 0,5
Mi, 14.11. 13:00 1028 - 0,4
Ortszeit Luftdruck NN (hPa) Tendenz (hPa in 3 Std.)
Fr, 16.11. 10:30 1030 + 1,4
Fr, 16.11. 10:20 1030 keine Meldung
Fr, 16.11. 10:10 1030 keine Meldung
Fr, 16.11. 10:00 1030 + 1,4
Fr, 16.11. 9:50 1030 keine Meldung
Fr, 16.11. 9:40 1030 keine Meldung
Fr, 16.11. 9:30 1029 + 1,3
Fr, 16.11. 9:00 1030 + 1,4
Fr, 16.11. 8:30 1029 + 1,3
Fr, 16.11. 8:00 1029 + 1,4
Fr, 16.11. 7:30 1029 + 0,9
Ortszeit Schneehöhe (cm)
Fr, 16.11. 7:00 0
Fr, 16.11. 1:00 0
Do, 15.11. 19:00 0
Do, 15.11. 13:00 0
Do, 15.11. 7:00 0
Do, 15.11. 1:00 0
Mi, 14.11. 19:00 0
Mi, 14.11. 13:00 0
Ortszeit Schneehöhe (cm)
Fr, 16.11. 10:30 0
Fr, 16.11. 10:20 0
Fr, 16.11. 10:10 0
Fr, 16.11. 10:00 0
Fr, 16.11. 9:50 0
Fr, 16.11. 9:40 0
Fr, 16.11. 9:30 0
Fr, 16.11. 9:00 0
Fr, 16.11. 8:30 0
Fr, 16.11. 8:00 0
Fr, 16.11. 7:30 0
Link zu dieser Seite / Seite empfehlen

Das Wetter in ...